ジッダ の空港の天気 - METARとTAF

キング・アブドゥルアズィーズ国際空港(ジッダ) ( OEJN / JED ) - サウジアラビア ジッダ
飛行場実況気象(Metar)
観測時間11/19 12:00 AST (11/19 09:00 UTC)
風向・風速北西 5m/s
視程10km以上
天気現象
少しの雲 雲底高度 1070m
気温32℃
湿度36%
気圧1012hPa
METAROEJN 190900Z 31009KT 9999 FEW035 32/15 Q1012 NOSIG
過去の天気等 Google飛行場航空写真 Wunderground天気予報

過去48時間のMETAR

飛行場予報(TAF)
発表時間: 11/19 08:00 AST (11/19 05:00 UTC)
予報対象時間: 19日9時 AST ~ 20日15時 AST
風向・風速北西 4m/s 瞬間風速 9m/s
視程10km以上
少しの雲 雲底高度 1220m
全天の4割程度の雲 雲底高度 3050m
19日9時 AST ~ 19日13時 AST に一時的に
少しの積乱雲 雲底高度 1070m
全天の4割程度の雲 雲底高度 1220m
TAF OEJN 190500Z 1906/2012 32008G18KT 9999 FEW040 SCT100
TEMPO 1906/1910 FEW035CB SCT040